Time;durP1;ratioP1;P1;durP2;ratioP2;P2;SDS_P1;SDS_P2;PMS_P1;PMS_P2;Temp;Humidity;BMP_temperature;BMP_pressure;BME280_temperature;BME280_humidity;BME280_pressure;Samples;Min_cycle;Max_cycle;Signal;HPM_P1;HPM_P2
2023/05/07 00:02:08;;;;;;;4.43;2.97;;;17.50;99.90;;;;;;4971446;28;20480;-82
2023/05/07 00:04:37;;;;;;;3.13;2.87;;;17.50;99.90;;;;;;4973957;28;20546;-81
2023/05/07 00:07:05;;;;;;;2.60;2.40;;;17.40;99.90;;;;;;4972386;28;20472;-81
2023/05/07 00:09:32;;;;;;;2.90;2.70;;;17.50;99.90;;;;;;4968587;28;20526;-81
2023/05/07 00:12:01;;;;;;;2.80;2.60;;;17.50;99.90;;;;;;4990687;28;20460;-82
2023/05/07 00:14:28;;;;;;;3.57;2.40;;;17.40;99.90;;;;;;4982576;28;20445;-81
2023/05/07 00:16:58;;;;;;;2.90;2.70;;;17.40;99.90;;;;;;4984197;28;20441;-83
2023/05/07 00:19:25;;;;;;;3.03;2.80;;;17.40;99.90;;;;;;4958475;28;20638;-83
2023/05/07 00:21:53;;;;;;;2.47;2.27;;;17.20;99.90;;;;;;4978004;28;20465;-84
2023/05/07 00:24:20;;;;;;;2.93;2.20;;;17.10;99.90;;;;;;4955944;28;20530;-83
2023/05/07 00:26:47;;;;;;;3.37;2.60;;;17.00;99.90;;;;;;4968456;28;20455;-83
2023/05/07 00:29:14;;;;;;;2.93;2.73;;;17.10;99.90;;;;;;4982655;28;20448;-83
2023/05/07 00:31:41;;;;;;;2.70;2.50;;;17.20;99.90;;;;;;4971804;28;20479;-83
2023/05/07 00:34:08;;;;;;;2.80;2.60;;;17.10;99.90;;;;;;4972432;28;20464;-82
2023/05/07 00:36:34;;;;;;;2.83;2.63;;;17.10;99.90;;;;;;4950039;28;20457;-81
2023/05/07 00:39:03;;;;;;;3.13;2.83;;;17.10;99.90;;;;;;4955813;28;20464;-84
2023/05/07 00:41:32;;;;;;;3.37;2.87;;;17.20;99.90;;;;;;4972951;28;20732;-84
2023/05/07 00:44:00;;;;;;;2.67;2.47;;;17.20;99.90;;;;;;4952485;28;20484;-85
2023/05/07 00:46:27;;;;;;;3.60;2.60;;;17.20;99.90;;;;;;4950582;28;20454;-84
2023/05/07 00:48:54;;;;;;;2.70;2.50;;;17.20;99.90;;;;;;4952826;28;20983;-84
2023/05/07 00:51:23;;;;;;;3.43;2.90;;;17.20;99.90;;;;;;4957568;28;20497;-84
2023/05/07 00:53:50;;;;;;;2.80;2.60;;;17.10;99.90;;;;;;4956985;28;20980;-84
2023/05/07 00:56:17;;;;;;;3.77;2.90;;;17.10;99.90;;;;;;4956003;28;20465;-84
2023/05/07 00:58:44;;;;;;;3.80;2.90;;;17.20;99.90;;;;;;4955406;28;20457;-84
2023/05/07 01:01:11;;;;;;;2.73;2.50;;;17.10;99.90;;;;;;4978219;28;20519;-82
2023/05/07 01:03:38;;;;;;;3.07;2.87;;;17.00;99.90;;;;;;4960608;28;20456;-83
2023/05/07 01:06:07;;;;;;;3.10;2.67;;;17.00;99.90;;;;;;4958016;28;20781;-84
2023/05/07 01:08:35;;;;;;;2.70;2.50;;;17.00;99.90;;;;;;4971051;28;20450;-83
2023/05/07 01:11:02;;;;;;;3.20;2.90;;;16.90;99.90;;;;;;4958754;28;20999;-84
2023/05/07 01:13:30;;;;;;;2.30;2.10;;;16.80;99.90;;;;;;4962165;28;20461;-84
2023/05/07 01:15:57;;;;;;;2.40;2.10;;;16.70;99.90;;;;;;4971119;28;20460;-82
2023/05/07 01:18:25;;;;;;;2.40;2.17;;;16.80;99.90;;;;;;4956841;28;20491;-84
2023/05/07 01:20:52;;;;;;;2.43;2.23;;;16.90;99.90;;;;;;4968266;28;20932;-84
2023/05/07 01:23:22;;;;;;;1.90;1.77;;;16.80;99.90;;;;;;4958419;28;20480;-82
2023/05/07 01:25:52;;;;;;;2.53;2.30;;;16.90;99.90;;;;;;4957823;28;20464;-84
2023/05/07 01:28:19;;;;;;;2.47;2.27;;;16.90;99.90;;;;;;4958756;28;20461;-82
2023/05/07 01:30:56;;;;;;;2.50;1.90;;;16.90;99.90;;;;;;4957931;28;20481;-84
2023/05/07 01:33:24;;;;;;;2.83;2.30;;;16.80;99.90;;;;;;4971761;28;20475;-82
2023/05/07 01:35:53;;;;;;;2.10;2.00;;;16.80;99.90;;;;;;4956812;28;20956;-83
2023/05/07 01:38:22;;;;;;;2.63;2.23;;;17.10;99.90;;;;;;4973942;28;20987;-83
2023/05/07 01:40:49;;;;;;;2.60;1.90;;;17.30;99.90;;;;;;4959065;28;20499;-83
2023/05/07 01:43:16;;;;;;;2.43;1.80;;;17.20;99.90;;;;;;4948694;28;20454;-83
2023/05/07 01:45:44;;;;;;;2.30;2.00;;;17.10;99.90;;;;;;4957835;28;20565;-84
2023/05/07 01:48:12;;;;;;;1.90;1.80;;;17.20;99.90;;;;;;4959759;28;20865;-83
2023/05/07 01:50:39;;;;;;;2.20;2.10;;;17.20;99.90;;;;;;4958860;28;20485;-83
2023/05/07 01:53:06;;;;;;;2.17;1.97;;;17.20;99.90;;;;;;4957555;28;20465;-83
2023/05/07 01:55:33;;;;;;;2.57;2.37;;;17.10;99.90;;;;;;4956319;28;20481;-84
2023/05/07 01:58:00;;;;;;;2.90;2.57;;;17.00;99.90;;;;;;4954219;28;20519;-83
2023/05/07 02:00:27;;;;;;;2.80;2.30;;;17.00;99.90;;;;;;4954264;28;20485;-83
2023/05/07 02:02:54;;;;;;;2.63;2.43;;;16.90;99.90;;;;;;4958726;28;20461;-83
2023/05/07 02:05:23;;;;;;;2.40;2.13;;;16.90;99.90;;;;;;4966955;28;20477;-83
2023/05/07 02:07:49;;;;;;;3.07;2.87;;;17.00;99.90;;;;;;4971224;28;20469;-82
2023/05/07 02:10:16;;;;;;;2.20;1.90;;;16.90;99.90;;;;;;4971638;28;20501;-84
2023/05/07 02:12:43;;;;;;;3.87;2.50;;;16.80;99.90;;;;;;4961431;28;20520;-83
2023/05/07 02:15:10;;;;;;;2.40;2.20;;;17.00;99.90;;;;;;4959786;28;20545;-84
2023/05/07 02:18:06;;;;;;;3.13;2.50;;;16.90;99.90;;;;;;4957601;28;20951;-83
2023/05/07 02:20:33;;;;;;;2.87;1.87;;;16.80;99.90;;;;;;4960862;28;20489;-83
2023/05/07 02:23:00;;;;;;;2.53;2.33;;;17.00;99.90;;;;;;4977133;28;20500;-83
2023/05/07 02:25:27;;;;;;;2.43;2.17;;;16.80;99.90;;;;;;4960719;28;20497;-84
2023/05/07 02:27:53;;;;;;;3.13;2.30;;;16.90;99.90;;;;;;4973942;28;20508;-83
2023/05/07 02:30:21;;;;;;;2.40;2.20;;;16.90;99.90;;;;;;4963555;28;20500;-84
2023/05/07 02:32:47;;;;;;;1.90;1.80;;;16.80;99.90;;;;;;4975023;28;20955;-83
2023/05/07 02:35:14;;;;;;;3.83;2.23;;;16.70;99.90;;;;;;4984473;28;20470;-83
2023/05/07 02:37:41;;;;;;;2.37;2.17;;;16.60;99.90;;;;;;4985537;28;20445;-82
2023/05/07 02:40:08;;;;;;;2.93;2.47;;;16.70;99.90;;;;;;4993593;28;20493;-82
2023/05/07 02:42:35;;;;;;;2.27;2.17;;;16.50;99.90;;;;;;4994858;28;20484;-81
2023/05/07 02:45:02;;;;;;;2.50;2.40;;;16.60;99.90;;;;;;4988871;28;20445;-81
2023/05/07 02:47:29;;;;;;;2.37;2.17;;;16.60;99.90;;;;;;4986051;28;20453;-81
2023/05/07 02:49:55;;;;;;;3.00;2.53;;;16.60;99.90;;;;;;4957670;28;20457;-81
2023/05/07 02:52:22;;;;;;;2.30;2.10;;;16.70;99.90;;;;;;4954227;28;20465;-83
2023/05/07 02:54:49;;;;;;;4.00;2.80;;;16.70;99.90;;;;;;4947791;28;20453;-83
2023/05/07 02:57:15;;;;;;;2.50;2.30;;;16.70;99.90;;;;;;4952053;28;20501;-83
2023/05/07 02:59:43;;;;;;;2.93;2.73;;;16.60;99.90;;;;;;4976360;28;20465;-83
2023/05/07 03:02:10;;;;;;;2.07;1.97;;;16.60;99.90;;;;;;4968565;28;20944;-83
2023/05/07 03:04:36;;;;;;;2.50;2.03;;;16.50;99.90;;;;;;4951139;28;20509;-83
2023/05/07 03:07:03;;;;;;;2.90;2.70;;;16.60;99.90;;;;;;4952545;28;20573;-83
2023/05/07 03:09:30;;;;;;;2.63;2.40;;;16.60;99.90;;;;;;4948528;28;20531;-82
2023/05/07 03:11:57;;;;;;;2.23;2.03;;;16.50;99.90;;;;;;4954140;28;21032;-82
2023/05/07 03:14:23;;;;;;;2.50;2.30;;;16.60;99.90;;;;;;4955271;28;20496;-82
2023/05/07 03:16:50;;;;;;;3.03;2.83;;;16.80;99.90;;;;;;4955519;28;20449;-83
2023/05/07 03:19:17;;;;;;;2.53;2.30;;;16.70;99.90;;;;;;4968557;28;20890;-84
2023/05/07 03:21:44;;;;;;;5.10;2.20;;;16.70;99.90;;;;;;4958056;28;21040;-84
2023/05/07 03:24:10;;;;;;;3.37;2.53;;;16.50;99.90;;;;;;4959529;28;20913;-83
2023/05/07 03:26:37;;;;;;;2.53;2.33;;;16.50;99.90;;;;;;4953774;28;20460;-84
2023/05/07 03:29:03;;;;;;;2.23;2.13;;;16.40;99.90;;;;;;4957397;28;20472;-83
2023/05/07 03:31:30;;;;;;;2.97;2.63;;;16.60;99.90;;;;;;4956107;28;20853;-81
2023/05/07 03:33:57;;;;;;;2.50;2.30;;;16.40;99.90;;;;;;4971147;28;20461;-82
2023/05/07 03:36:26;;;;;;;2.43;2.33;;;16.60;99.90;;;;;;4959376;28;20516;-83
2023/05/07 03:38:53;;;;;;;2.80;2.20;;;16.80;99.90;;;;;;4957447;28;20456;-82
2023/05/07 03:41:20;;;;;;;2.57;2.37;;;16.80;99.90;;;;;;4957460;28;20575;-84
2023/05/07 03:43:46;;;;;;;2.47;2.27;;;16.60;99.90;;;;;;4958079;28;20440;-84
2023/05/07 03:46:13;;;;;;;3.70;2.83;;;16.70;99.90;;;;;;4955251;28;20442;-82
2023/05/07 03:48:40;;;;;;;3.03;2.67;;;16.90;99.90;;;;;;4956693;28;20455;-83
2023/05/07 03:51:07;;;;;;;2.80;2.60;;;16.60;99.90;;;;;;4968382;28;20478;-82
2023/05/07 03:53:33;;;;;;;2.40;2.20;;;16.60;99.90;;;;;;4970056;28;20918;-83
2023/05/07 03:56:00;;;;;;;2.70;2.50;;;16.60;99.90;;;;;;4957117;28;20461;-83
2023/05/07 03:58:27;;;;;;;2.97;2.37;;;16.50;99.90;;;;;;4969398;28;20537;-84
2023/05/07 04:00:54;;;;;;;2.80;2.60;;;16.50;99.90;;;;;;4950624;28;20535;-82
2023/05/07 04:03:21;;;;;;;2.83;2.63;;;16.50;99.90;;;;;;4969192;28;20508;-83
2023/05/07 04:05:47;;;;;;;2.53;2.27;;;16.60;99.90;;;;;;4963717;28;20452;-82
2023/05/07 04:08:14;;;;;;;3.10;2.67;;;16.60;99.90;;;;;;4989098;28;20450;-81
2023/05/07 04:10:41;;;;;;;3.20;2.43;;;16.60;99.90;;;;;;4974206;28;20488;-83
2023/05/07 04:13:07;;;;;;;2.30;2.20;;;16.90;99.90;;;;;;4975618;28;20449;-82
2023/05/07 04:15:35;;;;;;;2.20;2.10;;;16.90;99.90;;;;;;4964592;28;20481;-82
2023/05/07 04:18:02;;;;;;;3.07;2.87;;;16.70;99.90;;;;;;4949028;28;20481;-82
2023/05/07 04:20:29;;;;;;;3.30;2.70;;;16.60;99.90;;;;;;4951802;28;20496;-81
2023/05/07 04:22:56;;;;;;;3.00;2.70;;;16.60;99.90;;;;;;4963382;28;20441;-82
2023/05/07 04:25:26;;;;;;;2.87;1.93;;;16.60;99.90;;;;;;4966935;28;20897;-81
2023/05/07 04:27:54;;;;;;;3.20;2.20;;;16.80;99.90;;;;;;4955791;28;20453;-83
2023/05/07 04:30:23;;;;;;;2.20;2.00;;;16.70;99.90;;;;;;4952329;28;20477;-83
2023/05/07 04:32:50;;;;;;;3.03;2.20;;;16.70;99.90;;;;;;4966699;28;20456;-83
2023/05/07 04:35:17;;;;;;;2.53;2.33;;;16.50;99.90;;;;;;4953429;28;20464;-83
2023/05/07 04:37:44;;;;;;;2.87;2.40;;;16.50;99.90;;;;;;4954530;28;20936;-82
2023/05/07 04:40:11;;;;;;;2.97;2.30;;;16.60;99.90;;;;;;4955105;28;20489;-82
2023/05/07 04:42:38;;;;;;;2.10;2.00;;;16.60;99.90;;;;;;4956131;28;20879;-82
2023/05/07 04:45:06;;;;;;;2.40;2.20;;;16.70;99.90;;;;;;4953464;28;20462;-83
2023/05/07 04:47:34;;;;;;;2.70;2.50;;;16.70;99.90;;;;;;4957454;28;20453;-83
2023/05/07 04:50:00;;;;;;;2.27;2.07;;;16.60;99.90;;;;;;4953942;28;20449;-82
2023/05/07 04:52:27;;;;;;;3.03;2.47;;;16.70;99.90;;;;;;4971459;28;20470;-82
2023/05/07 04:54:54;;;;;;;2.80;2.60;;;16.70;99.90;;;;;;4953950;28;20459;-82
2023/05/07 04:57:21;;;;;;;2.30;2.10;;;16.60;99.90;;;;;;4970449;28;20453;-84
2023/05/07 04:59:48;;;;;;;2.20;2.00;;;16.50;99.90;;;;;;4972364;28;20453;-83
2023/05/07 05:02:17;;;;;;;2.10;1.90;;;16.40;99.90;;;;;;4957604;28;20480;-83
2023/05/07 05:05:06;;;;;;;1.63;1.53;;;16.30;99.90;;;;;;4956427;28;20496;-83
2023/05/07 05:07:38;;;;;;;3.73;2.40;;;16.60;99.90;;;;;;4968555;28;20456;-82
2023/05/07 05:10:14;;;;;;;1.83;1.67;;;16.60;99.90;;;;;;4954763;28;20584;-81
2023/05/07 05:12:59;;;;;;;1.83;1.73;;;16.80;99.90;;;;;;4951104;28;20520;-81
2023/05/07 05:15:38;;;;;;;1.80;1.70;;;16.80;99.90;;;;;;4958222;28;20493;-82
2023/05/07 05:18:10;;;;;;;1.93;1.73;;;16.70;99.90;;;;;;4954355;28;20460;-82
2023/05/07 05:20:58;;;;;;;1.60;1.50;;;16.70;99.90;;;;;;4955853;28;20488;-83
2023/05/07 05:23:38;;;;;;;1.83;1.63;;;16.80;99.90;;;;;;4962932;28;20524;-82
2023/05/07 05:26:21;;;;;;;1.70;1.60;;;16.70;99.90;;;;;;4970500;28;20544;-83
2023/05/07 05:28:59;;;;;;;2.00;1.67;;;16.90;99.90;;;;;;4956579;28;20460;-83
2023/05/07 05:31:48;;;;;;;2.27;2.17;;;17.00;99.90;;;;;;4960133;28;20480;-81
2023/05/07 05:34:30;;;;;;;1.77;1.60;;;16.90;99.90;;;;;;4955746;28;20464;-83
2023/05/07 05:37:12;;;;;;;3.00;1.87;;;17.10;99.90;;;;;;4974833;28;20495;-83
2023/05/07 05:40:01;;;;;;;1.90;1.80;;;17.20;99.90;;;;;;4962751;28;20478;-83
2023/05/07 05:42:42;;;;;;;1.60;1.50;;;17.30;99.90;;;;;;4966183;28;20500;-82
2023/05/07 05:48:18;;;;;;;2.07;1.87;;;17.20;99.90;;;;;;4950871;28;20453;-83
2023/05/07 05:50:47;;;;;;;1.73;1.63;;;17.00;99.90;;;;;;4956415;28;20850;-83
2023/05/07 05:53:30;;;;;;;2.00;1.90;;;17.10;99.90;;;;;;4955234;28;20437;-84
2023/05/07 05:56:09;;;;;;;1.53;1.20;;;17.20;99.90;;;;;;4958210;28;20555;-84
2023/05/07 05:58:46;;;;;;;1.93;1.83;;;17.20;99.90;;;;;;4962666;28;20459;-83
2023/05/07 06:01:24;;;;;;;1.63;1.53;;;17.30;99.90;;;;;;4967822;28;20486;-84
2023/05/07 06:03:53;;;;;;;1.80;1.70;;;17.30;99.90;;;;;;4959635;28;20537;-84
2023/05/07 06:06:28;;;;;;;1.50;1.50;;;17.40;99.90;;;;;;4960793;28;20457;-83
2023/05/07 06:09:05;;;;;;;1.90;1.70;;;17.50;99.90;;;;;;4959865;28;20459;-83
2023/05/07 06:11:48;;;;;;;1.97;1.87;;;17.50;99.90;;;;;;4977747;28;20488;-84
2023/05/07 06:14:36;;;;;;;1.87;1.67;;;17.40;99.90;;;;;;4954173;28;20496;-83
2023/05/07 06:17:30;;;;;;;1.90;1.80;;;17.20;99.90;;;;;;4953996;28;20460;-83
2023/05/07 06:20:00;;;;;;;1.90;1.77;;;17.30;99.90;;;;;;4958575;28;20484;-83
2023/05/07 06:22:42;;;;;;;1.50;1.40;;;17.30;99.90;;;;;;4962070;28;20571;-83
2023/05/07 06:25:15;;;;;;;2.53;1.80;;;17.40;99.90;;;;;;4951699;28;20496;-83
2023/05/07 06:27:46;;;;;;;1.80;1.70;;;17.70;99.90;;;;;;4971375;28;20479;-82
2023/05/07 06:30:20;;;;;;;1.90;1.80;;;17.90;99.90;;;;;;4958195;28;20484;-82
2023/05/07 06:33:01;;;;;;;1.60;1.50;;;17.90;99.90;;;;;;4957314;28;20476;-83
2023/05/07 06:35:47;;;;;;;1.53;1.43;;;18.00;99.90;;;;;;4957350;28;20452;-82
2023/05/07 06:38:15;;;;;;;2.20;1.33;;;17.90;99.90;;;;;;4957483;28;20457;-83
2023/05/07 06:40:49;;;;;;;1.50;1.40;;;18.00;99.90;;;;;;4958605;28;20484;-85
2023/05/07 06:43:45;;;;;;;1.73;1.63;;;18.10;99.90;;;;;;4949460;28;20449;-83
2023/05/07 06:46:14;;;;;;;2.17;2.00;;;18.20;99.90;;;;;;4982961;28;20496;-80
2023/05/07 06:49:06;;;;;;;2.43;2.20;;;18.10;99.90;;;;;;4974352;28;20539;-83
2023/05/07 06:52:00;;;;;;;2.33;2.13;;;18.30;99.90;;;;;;4987067;28;20516;-80
2023/05/07 06:54:50;;;;;;;1.60;1.50;;;18.40;99.90;;;;;;4986551;28;20455;-81
2023/05/07 06:57:33;;;;;;;2.20;1.80;;;18.50;99.70;;;;;;4986915;28;20584;-82
2023/05/07 07:00:00;;;;;;;1.50;1.40;;;18.30;99.80;;;;;;4977273;28;20545;-83
2023/05/07 07:02:29;;;;;;;2.10;1.40;;;18.30;99.90;;;;;;4973049;28;20537;-81
2023/05/07 07:05:00;;;;;;;1.70;1.50;;;18.50;99.90;;;;;;4976922;28;20487;-83
2023/05/07 07:07:32;;;;;;;2.53;1.83;;;18.50;99.90;;;;;;4992487;28;20445;-82
2023/05/07 07:10:17;;;;;;;1.60;1.50;;;18.60;99.70;;;;;;4985681;28;20470;-83
2023/05/07 07:13:03;;;;;;;2.87;1.30;;;18.80;99.50;;;;;;4988274;28;20453;-83
2023/05/07 07:15:48;;;;;;;1.70;1.60;;;18.70;99.30;;;;;;4977882;28;20449;-83
2023/05/07 07:18:41;;;;;;;2.40;1.60;;;18.90;99.00;;;;;;4975858;28;20464;-84
2023/05/07 07:21:14;;;;;;;1.83;1.60;;;19.30;98.00;;;;;;4964940;28;20519;-82
2023/05/07 07:24:00;;;;;;;1.47;1.40;;;19.60;97.10;;;;;;4969694;28;20461;-83
2023/05/07 07:26:47;;;;;;;2.40;1.83;;;19.60;97.20;;;;;;4990705;28;20461;-83
2023/05/07 07:29:37;;;;;;;1.70;1.60;;;19.70;97.20;;;;;;4985891;28;20523;-82
2023/05/07 07:32:08;;;;;;;1.97;1.60;;;19.70;97.00;;;;;;4973223;28;20496;-83
2023/05/07 07:34:45;;;;;;;2.23;2.03;;;19.80;96.90;;;;;;4985362;28;20504;-84
2023/05/07 07:37:30;;;;;;;;;;;;;;;;;;;;;
2023/05/07 07:40:23;;;;;;;1.87;1.50;;;19.80;96.60;;;;;;4969911;28;20733;-82
2023/05/07 07:42:58;;;;;;;1.60;1.50;;;19.80;96.60;;;;;;4975766;28;20596;-82
2023/05/07 07:48:51;;;;;;;3.33;1.63;;;20.40;95.50;;;;;;4967484;28;20451;-81
2023/05/07 07:51:35;;;;;;;3.20;1.53;;;20.80;95.40;;;;;;4971867;28;20521;-83
2023/05/07 07:54:24;;;;;;;1.60;1.50;;;21.90;92.60;;;;;;4977887;28;20413;-81
2023/05/07 07:57:16;;;;;;;1.60;1.50;;;21.40;92.60;;;;;;4971119;28;20464;-83
2023/05/07 07:59:46;;;;;;;2.60;1.97;;;21.20;92.70;;;;;;4989091;28;20516;-82
2023/05/07 08:02:37;;;;;;;1.87;1.77;;;20.90;93.30;;;;;;4979545;28;20484;-81
2023/05/07 08:05:29;;;;;;;1.73;1.63;;;20.60;93.70;;;;;;4965265;28;20536;-82
2023/05/07 08:08:30;;;;;;;1.80;1.70;;;20.50;94.30;;;;;;4984762;28;20489;-82
2023/05/07 08:11:10;;;;;;;2.10;1.50;;;20.60;94.50;;;;;;4982083;28;20464;-81
2023/05/07 08:14:29;;;;;;;1.80;1.70;;;20.70;94.00;;;;;;4958266;28;20550;-84
2023/05/07 08:17:21;;;;;;;;;;;;;;;;;;;;;
2023/05/07 08:20:08;;;;;;;1.70;1.60;;;20.40;94.70;;;;;;4950638;28;20441;-83
2023/05/07 08:22:46;;;;;;;1.60;1.50;;;20.30;94.60;;;;;;4950736;28;20563;-84
2023/05/07 08:25:26;;;;;;;1.40;1.30;;;20.20;94.80;;;;;;4953074;28;20448;-84
2023/05/07 08:28:00;;;;;;;1.90;1.43;;;20.30;94.80;;;;;;4972902;28;20500;-83
2023/05/07 08:30:40;;;;;;;1.90;1.70;;;20.30;94.90;;;;;;4952340;28;20475;-82
2023/05/07 08:33:09;;;;;;;1.70;1.60;;;20.00;95.20;;;;;;4955584;28;20952;-83
2023/05/07 08:36:01;;;;;;;2.40;2.20;;;20.20;95.10;;;;;;4950585;28;20600;-82
2023/05/07 08:38:45;;;;;;;1.73;1.63;;;20.20;95.20;;;;;;4952036;28;20466;-84
2023/05/07 08:41:50;;;;;;;1.77;1.53;;;20.10;95.70;;;;;;4969166;28;20493;-84
2023/05/07 08:45:08;;;;;;;2.03;1.87;;;20.30;95.50;;;;;;4965310;28;20470;-84
2023/05/07 08:47:59;;;;;;;3.30;1.70;;;20.50;95.40;;;;;;4955439;28;20484;-84
2023/05/07 08:54:05;;;;;;;2.13;1.80;;;21.20;94.00;;;;;;4954234;28;20457;-84
2023/05/07 08:57:15;;;;;;;1.77;1.63;;;22.20;92.50;;;;;;4956376;28;20588;-83
2023/05/07 09:00:09;;;;;;;1.53;1.43;;;22.60;90.80;;;;;;4966946;28;20476;-83
2023/05/07 09:03:12;;;;;;;4.00;1.63;;;22.70;91.10;;;;;;4939985;28;20493;-83
2023/05/07 09:05:59;;;;;;;1.90;1.70;;;23.60;90.00;;;;;;4956699;28;20445;-82
2023/05/07 09:08:43;;;;;;;1.80;1.70;;;23.70;88.80;;;;;;4946350;28;20516;-84
2023/05/07 09:11:59;;;;;;;1.83;1.53;;;23.80;86.90;;;;;;4956956;28;20594;-84
2023/05/07 09:15:19;;;;;;;1.70;1.60;;;24.00;86.00;;;;;;4957818;28;20453;-83
2023/05/07 09:18:07;;;;;;;1.50;1.40;;;23.70;85.90;;;;;;4954077;28;20445;-83
2023/05/07 09:20:56;;;;;;;2.00;1.40;;;23.20;86.70;;;;;;4952531;28;20469;-83
2023/05/07 09:24:05;;;;;;;1.40;1.30;;;23.30;86.90;;;;;;4964103;28;20459;-84
2023/05/07 09:27:14;;;;;;;;;;;;;;;;;;;;;
2023/05/07 09:30:02;;;;;;;2.50;1.63;;;25.60;79.30;;;;;;4960090;28;20459;-84
2023/05/07 09:33:04;;;;;;;1.20;1.10;;;27.10;73.90;;;;;;4970642;28;20925;-84
2023/05/07 09:36:04;;;;;;;1.50;1.40;;;27.30;69.20;;;;;;4957047;28;20452;-84
2023/05/07 09:39:06;;;;;;;1.50;1.40;;;27.40;66.20;;;;;;4958565;28;20454;-84
2023/05/07 09:42:01;;;;;;;1.40;1.30;;;26.60;68.20;;;;;;4978183;28;20488;-83
2023/05/07 09:44:56;;;;;;;1.00;1.00;;;26.80;67.90;;;;;;4947004;28;20434;-84
2023/05/07 09:48:08;;;;;;;1.50;1.40;;;27.40;66.30;;;;;;4968511;28;20529;-84
2023/05/07 09:50:56;;;;;;;1.83;1.37;;;29.10;60.70;;;;;;4966229;28;20469;-83
2023/05/07 09:53:56;;;;;;;1.47;1.37;;;29.40;58.80;;;;;;4973924;28;20504;-85
2023/05/07 09:57:06;;;;;;;1.57;1.30;;;30.40;55.90;;;;;;4978180;28;20457;-84
2023/05/07 10:00:31;;;;;;;1.53;1.30;;;30.20;55.20;;;;;;4970207;28;20575;-82
2023/05/07 10:03:12;;;;;;;1.00;1.00;;;30.90;53.00;;;;;;4969427;28;20476;-84
2023/05/07 10:05:51;;;;;;;1.47;1.37;;;30.30;53.20;;;;;;4974112;28;20465;-82
2023/05/07 10:08:48;;;;;;;4.10;1.30;;;29.20;54.20;;;;;;4973517;28;20520;-84
2023/05/07 10:11:51;;;;;;;0.93;0.93;;;29.30;54.60;;;;;;4958540;28;20461;-82
2023/05/07 10:14:51;;;;;;;;;;;;;;;;;;;;;
2023/05/07 10:17:52;;;;;;;1.50;1.40;;;27.90;56.70;;;;;;4952780;28;20464;-83
2023/05/07 10:20:39;;;;;;;1.67;1.57;;;26.90;58.70;;;;;;4973800;28;20606;-83
2023/05/07 10:23:30;;;;;;;1.40;1.30;;;26.40;60.80;;;;;;4975286;28;20557;-84
2023/05/07 10:26:27;;;;;;;2.50;1.33;;;26.40;60.70;;;;;;4959748;28;20636;-83
2023/05/07 10:30:04;;;;;;;2.00;1.30;;;26.30;62.20;;;;;;4969634;28;20430;-86
2023/05/07 10:32:47;;;;;;;1.63;1.53;;;26.10;62.90;;;;;;4985159;28;20441;-84
2023/05/07 10:35:55;;;;;;;1.50;1.27;;;26.60;61.10;;;;;;4974860;28;20440;-84
2023/05/07 10:38:33;;;;;;;1.50;1.40;;;27.10;60.90;;;;;;4966330;28;20523;-85
2023/05/07 10:41:06;;;;;;;1.77;1.27;;;27.40;58.90;;;;;;5287908;23;22155;-83
2023/05/07 10:43:50;;;;;;;2.00;1.47;;;27.10;59.10;;;;;;4974524;28;20552;-85
2023/05/07 10:47:09;;;;;;;1.23;1.13;;;27.20;58.80;;;;;;4969461;28;20468;-83
2023/05/07 10:50:04;;;;;;;1.00;1.00;;;27.30;57.80;;;;;;4949430;28;20496;-83
2023/05/07 10:53:25;;;;;;;1.40;1.30;;;27.50;58.30;;;;;;4925689;29;20465;-83
2023/05/07 10:56:50;;;;;;;1.57;1.40;;;27.80;57.20;;;;;;4902492;29;21064;-83
2023/05/07 10:59:41;;;;;;;1.93;1.33;;;27.50;58.10;;;;;;4938827;28;20517;-83
2023/05/07 11:03:08;;;;;;;1.60;1.50;;;27.70;57.60;;;;;;4933052;29;20482;-81
2023/05/07 11:05:52;;;;;;;1.40;1.30;;;28.40;56.70;;;;;;4948859;28;20462;-83
2023/05/07 11:08:28;;;;;;;1.27;1.17;;;27.90;57.60;;;;;;4942533;29;20470;-85
2023/05/07 11:11:10;;;;;;;1.50;1.40;;;27.70;57.90;;;;;;4956166;28;20473;-84
2023/05/07 11:13:56;;;;;;;1.30;1.20;;;27.80;58.30;;;;;;4949977;28;20462;-82
2023/05/07 11:19:55;;;;;;;1.30;1.20;;;27.30;58.30;;;;;;4942858;29;20473;-83
2023/05/07 11:22:44;;;;;;;1.30;1.20;;;28.00;55.70;;;;;;4933034;29;20507;-84
2023/05/07 11:25:28;;;;;;;1.40;1.30;;;28.00;54.10;;;;;;4934201;29;20491;-83
2023/05/07 11:28:16;;;;;;;1.27;1.20;;;28.10;54.60;;;;;;4934237;29;20807;-85
2023/05/07 11:31:19;;;;;;;1.20;1.10;;;27.90;54.30;;;;;;4937195;29;20477;-84
2023/05/07 11:34:02;;;;;;;1.13;1.13;;;28.20;53.50;;;;;;4936788;29;20501;-83
2023/05/07 11:37:12;;;;;;;0.97;0.97;;;27.80;53.60;;;;;;4948298;28;20469;-83
2023/05/07 11:39:58;;;;;;;1.87;1.30;;;27.20;53.90;;;;;;4939272;29;20461;-82
2023/05/07 11:42:49;;;;;;;1.50;1.40;;;26.80;53.00;;;;;;4932782;29;20544;-84
2023/05/07 11:45:25;;;;;;;1.73;1.37;;;26.70;53.30;;;;;;4949328;28;21221;-84
2023/05/07 11:47:56;;;;;;;1.40;1.30;;;26.60;55.10;;;;;;4937315;29;20458;-85
2023/05/07 11:50:48;;;;;;;1.70;1.60;;;26.20;56.20;;;;;;4938149;28;20575;-83
2023/05/07 11:53:24;;;;;;;1.40;1.30;;;25.90;56.20;;;;;;4932378;29;20485;-84
2023/05/07 11:56:08;;;;;;;1.53;1.20;;;25.80;55.80;;;;;;4936393;29;20458;-82
2023/05/07 11:58:48;;;;;;;1.93;1.77;;;25.60;55.70;;;;;;4950148;28;20465;-83
2023/05/07 12:01:36;;;;;;;2.60;1.30;;;25.40;56.70;;;;;;4937049;29;20509;-82
2023/05/07 12:04:07;;;;;;;1.50;1.40;;;25.20;56.60;;;;;;4939690;29;20485;-83
2023/05/07 12:06:59;;;;;;;1.63;1.33;;;24.90;57.70;;;;;;4942231;29;20466;-83
2023/05/07 12:09:38;;;;;;;1.30;1.20;;;24.50;58.50;;;;;;4942144;29;20492;-83
2023/05/07 12:12:19;;;;;;;1.60;1.50;;;24.50;59.00;;;;;;4949137;28;20486;-82
2023/05/07 12:14:54;;;;;;;3.00;1.60;;;24.50;59.30;;;;;;4935920;29;20493;-84
2023/05/07 12:17:36;;;;;;;1.43;1.33;;;24.60;59.70;;;;;;4937025;29;20489;-84
2023/05/07 12:20:23;;;;;;;1.40;1.30;;;24.90;59.50;;;;;;4933907;29;20453;-83
2023/05/07 12:23:11;;;;;;;1.87;1.60;;;25.00;59.20;;;;;;4947249;28;20482;-84
2023/05/07 12:25:50;;;;;;;1.40;1.30;;;24.90;59.30;;;;;;4952097;28;20588;-83
2023/05/07 12:28:42;;;;;;;1.40;1.30;;;24.90;60.20;;;;;;4937074;29;20493;-84
2023/05/07 12:31:14;;;;;;;1.40;1.30;;;25.30;60.10;;;;;;4941190;29;20556;-84
2023/05/07 12:33:49;;;;;;;1.57;1.47;;;25.20;59.50;;;;;;4940422;29;21060;-84
2023/05/07 12:36:25;;;;;;;1.30;1.30;;;25.00;60.80;;;;;;4940023;29;20966;-83
2023/05/07 12:38:57;;;;;;;1.50;1.40;;;24.80;61.10;;;;;;4942150;29;20497;-82
2023/05/07 12:41:29;;;;;;;1.80;1.70;;;25.20;60.20;;;;;;4936559;29;20489;-83
2023/05/07 12:44:04;;;;;;;1.47;1.37;;;25.10;60.00;;;;;;4940632;29;20486;-83
2023/05/07 12:46:46;;;;;;;1.80;1.70;;;24.60;61.80;;;;;;4936886;29;20454;-84
2023/05/07 12:49:20;;;;;;;1.60;1.50;;;24.60;62.30;;;;;;4941775;29;20492;-82
2023/05/07 12:52:26;;;;;;;;;;;;;;;;;;;;;
2023/05/07 12:55:15;;;;;;;1.87;1.23;;;24.80;63.00;;;;;;4939916;29;20453;-84
2023/05/07 12:58:03;;;;;;;1.70;1.60;;;24.70;64.50;;;;;;4943691;29;20888;-83
2023/05/07 13:00:58;;;;;;;1.70;1.60;;;24.70;65.20;;;;;;4948710;28;20481;-83
2023/05/07 13:03:59;;;;;;;1.83;1.43;;;24.40;65.90;;;;;;4954027;28;20524;-82
2023/05/07 13:06:26;;;;;;;1.60;1.50;;;24.30;66.30;;;;;;4941834;29;20525;-85
2023/05/07 13:08:55;;;;;;;2.27;1.77;;;24.40;68.50;;;;;;4951257;28;20457;-83
2023/05/07 13:11:38;;;;;;;1.70;1.60;;;24.30;68.80;;;;;;4943049;28;20536;-83
2023/05/07 13:14:20;;;;;;;1.30;1.20;;;24.20;68.70;;;;;;4942788;29;20481;-83
2023/05/07 13:17:09;;;;;;;1.63;1.53;;;24.20;68.00;;;;;;4939909;29;20461;-84
2023/05/07 13:19:48;;;;;;;1.90;1.80;;;24.20;68.40;;;;;;4950299;28;20488;-84
2023/05/07 13:22:26;;;;;;;1.87;1.63;;;24.20;69.60;;;;;;4942937;29;20920;-84
2023/05/07 13:25:02;;;;;;;1.70;1.60;;;24.30;71.00;;;;;;4959408;28;20457;-83
2023/05/07 13:27:36;;;;;;;1.50;1.40;;;24.20;71.00;;;;;;4950328;29;20472;-82
2023/05/07 13:30:05;;;;;;;1.50;1.40;;;24.10;71.20;;;;;;4940533;29;20519;-83
2023/05/07 13:32:47;;;;;;;1.43;1.30;;;24.00;71.00;;;;;;4951490;29;20461;-83
2023/05/07 13:35:37;;;;;;;1.97;1.50;;;23.90;70.60;;;;;;4953727;29;20521;-83
2023/05/07 13:38:24;;;;;;;2.70;1.87;;;23.90;70.50;;;;;;4965678;28;20468;-83
2023/05/07 13:41:01;;;;;;;1.83;1.73;;;23.90;70.30;;;;;;4952004;28;20488;-84
2023/05/07 13:43:37;;;;;;;1.87;1.77;;;23.80;70.10;;;;;;4953155;29;20521;-83
2023/05/07 13:46:40;;;;;;;;;;;;;;;;;;;;;
2023/05/07 13:49:30;;;;;;;1.70;1.60;;;23.90;72.30;;;;;;4940646;29;20832;-83
2023/05/07 13:52:20;;;;;;;1.67;1.57;;;23.90;71.50;;;;;;4953587;28;20563;-83
2023/05/07 13:58:49;;;;;;;1.90;1.80;;;23.80;67.30;;;;;;4892019;29;20706;-84
2023/05/07 14:01:45;;;;;;;2.27;2.07;;;23.70;68.30;;;;;;4916795;28;20465;-84
2023/05/07 14:04:44;;;;;;;1.87;1.77;;;23.70;68.70;;;;;;4932455;29;20485;-85
2023/05/07 14:07:33;;;;;;;2.17;1.70;;;23.80;68.70;;;;;;4937889;28;20516;-84
2023/05/07 14:10:11;;;;;;;2.90;1.77;;;23.90;68.50;;;;;;4941903;28;20467;-86
2023/05/07 14:12:47;;;;;;;1.87;1.73;;;23.90;70.20;;;;;;4941510;29;20469;-83